createdAt,value
2023-05-01T00:02:00.330Z,10.87
2023-05-01T00:04:27.162Z,11.57
2023-05-01T00:06:54.059Z,12.53
2023-05-01T00:09:20.985Z,14.63
2023-05-01T00:11:47.796Z,12.23
2023-05-01T00:14:14.665Z,12.03
2023-05-01T00:16:41.616Z,12.17
2023-05-01T00:19:08.678Z,13.70
2023-05-01T00:21:35.604Z,13.03
2023-05-01T00:24:02.484Z,13.37
2023-05-01T00:26:29.519Z,13.43
2023-05-01T00:28:56.281Z,13.73
2023-05-01T00:31:25.204Z,14.27
2023-05-01T00:33:52.118Z,13.83
2023-05-01T00:36:18.992Z,17.53
2023-05-01T00:38:45.847Z,13.20
2023-05-01T00:41:12.754Z,12.70
2023-05-01T00:43:39.642Z,12.67
2023-05-01T00:46:08.137Z,11.97
2023-05-01T00:48:35.799Z,14.37
2023-05-01T00:51:06.854Z,11.97
2023-05-01T00:53:34.373Z,12.77
2023-05-01T00:56:01.778Z,12.70
2023-05-01T00:58:29.756Z,12.97
2023-05-01T01:00:56.924Z,12.33
2023-05-01T01:03:23.931Z,12.10
2023-05-01T01:06:23.958Z,12.07
2023-05-01T01:09:18.220Z,10.57
2023-05-01T01:11:57.851Z,10.27
2023-05-01T01:14:59.415Z,10.37
2023-05-01T01:17:59.093Z,10.63
2023-05-01T01:20:55.863Z,11.63
2023-05-01T01:24:08.757Z,10.30
2023-05-01T01:27:28.976Z,10.13
2023-05-01T01:30:46.509Z,10.57
2023-05-01T01:33:55.652Z,11.40
2023-05-01T01:36:43.837Z,8.97
2023-05-01T01:40:08.182Z,10.80
2023-05-01T01:42:46.689Z,10.27
2023-05-01T01:45:22.909Z,9.77
2023-05-01T01:47:52.172Z,10.47
2023-05-01T01:50:22.882Z,8.87
2023-05-01T01:52:52.276Z,10.73
2023-05-01T01:55:24.229Z,9.93
2023-05-01T01:57:52.200Z,10.37
2023-05-01T02:00:20.634Z,9.50
2023-05-01T02:02:49.117Z,9.23
2023-05-01T02:05:19.366Z,9.07
2023-05-01T02:07:49.805Z,17.90
2023-05-01T02:10:17.839Z,9.83
2023-05-01T02:12:51.238Z,8.97
2023-05-01T02:15:19.264Z,8.47
2023-05-01T02:17:46.422Z,9.10
2023-05-01T02:20:14.313Z,8.33
2023-05-01T02:22:41.465Z,10.53
2023-05-01T02:25:13.959Z,9.07
2023-05-01T02:28:04.049Z,8.53
2023-05-01T02:30:30.900Z,8.83
2023-05-01T02:32:57.724Z,9.33
2023-05-01T02:35:24.722Z,8.57
2023-05-01T02:37:51.945Z,8.97
2023-05-01T02:40:18.905Z,8.63
2023-05-01T02:42:48.202Z,8.67
2023-05-01T02:45:24.452Z,8.70
2023-05-01T02:47:56.733Z,8.20
2023-05-01T02:50:25.305Z,9.10
2023-05-01T02:52:52.960Z,8.77
2023-05-01T02:55:20.053Z,8.53
2023-05-01T02:57:46.917Z,9.40
2023-05-01T03:00:14.346Z,10.80
2023-05-01T03:02:41.665Z,8.97
2023-05-01T03:05:09.396Z,9.70
2023-05-01T03:07:36.262Z,8.83
2023-05-01T03:10:05.231Z,9.00
2023-05-01T03:12:32.102Z,8.40
2023-05-01T03:14:58.980Z,11.13
2023-05-01T03:17:26.612Z,7.93
2023-05-01T03:19:53.651Z,8.37
2023-05-01T03:22:20.765Z,9.00
2023-05-01T03:24:47.973Z,8.10
2023-05-01T03:27:14.817Z,10.07
2023-05-01T03:29:41.726Z,8.00
2023-05-01T03:32:08.798Z,9.47
2023-05-01T03:34:36.020Z,9.70
2023-05-01T03:37:02.904Z,13.83
2023-05-01T03:39:29.727Z,9.80
2023-05-01T03:41:56.578Z,8.90
2023-05-01T03:44:23.365Z,9.50
2023-05-01T03:46:50.209Z,15.57
2023-05-01T03:49:17.085Z,6.90
2023-05-01T03:51:43.908Z,8.73
2023-05-01T03:54:10.800Z,10.13
2023-05-01T03:56:37.654Z,8.80
2023-05-01T03:59:04.562Z,8.70
2023-05-01T04:01:31.394Z,8.37
2023-05-01T04:03:58.459Z,8.70
2023-05-01T04:06:25.599Z,9.83
2023-05-01T04:08:52.452Z,10.20
2023-05-01T04:11:19.357Z,8.00
2023-05-01T04:13:46.245Z,7.80
2023-05-01T04:16:13.134Z,8.70
2023-05-01T04:18:40.013Z,8.30
2023-05-01T04:21:06.839Z,7.87
2023-05-01T04:23:33.620Z,8.10
2023-05-01T04:26:00.462Z,7.63
2023-05-01T04:28:27.403Z,6.83
2023-05-01T04:30:54.273Z,8.10
2023-05-01T04:33:21.102Z,6.97
2023-05-01T04:35:47.942Z,7.90
2023-05-01T04:38:14.924Z,9.63
2023-05-01T04:40:41.915Z,12.70
2023-05-01T04:43:08.694Z,6.67
2023-05-01T04:45:35.652Z,7.17
2023-05-01T04:48:02.583Z,6.97
2023-05-01T04:50:29.470Z,7.47
2023-05-01T04:52:56.346Z,11.87
2023-05-01T04:55:23.292Z,10.53
2023-05-01T04:57:50.125Z,7.27
2023-05-01T05:00:17.458Z,9.57
2023-05-01T05:02:44.842Z,7.10
2023-05-01T05:05:12.105Z,8.00
2023-05-01T05:07:38.901Z,7.13
2023-05-01T05:10:06.815Z,8.20
2023-05-01T05:12:33.760Z,7.30
2023-05-01T05:15:00.549Z,7.20
2023-05-01T05:17:27.467Z,7.17
2023-05-01T05:19:54.727Z,7.93
2023-05-01T05:22:21.951Z,6.67
2023-05-01T05:24:54.354Z,14.23
2023-05-01T05:27:21.256Z,6.27
2023-05-01T05:29:48.060Z,7.17
2023-05-01T05:32:14.972Z,7.17
2023-05-01T05:34:41.856Z,6.50
2023-05-01T05:37:08.735Z,7.77
2023-05-01T05:39:35.522Z,7.50
2023-05-01T05:42:02.322Z,6.27
2023-05-01T05:44:29.167Z,6.17
2023-05-01T05:46:56.006Z,8.33
2023-05-01T05:49:22.837Z,11.63
2023-05-01T05:51:49.674Z,7.07
2023-05-01T05:54:16.462Z,6.87
2023-05-01T05:56:43.333Z,7.03
2023-05-01T05:59:10.099Z,8.20
2023-05-01T06:01:36.898Z,9.20
2023-05-01T06:04:03.844Z,6.73
2023-05-01T06:06:30.710Z,6.13
2023-05-01T06:08:57.671Z,6.77
2023-05-01T06:11:24.602Z,8.70
2023-05-01T06:13:51.542Z,9.43
2023-05-01T06:16:18.464Z,9.80
2023-05-01T06:18:45.953Z,5.67
2023-05-01T06:21:13.237Z,7.60
2023-05-01T06:23:40.111Z,5.20
2023-05-01T06:26:06.941Z,10.27
2023-05-01T06:28:33.998Z,6.97
2023-05-01T06:31:00.895Z,6.53
2023-05-01T06:33:27.833Z,7.43
2023-05-01T06:35:55.429Z,5.07
2023-05-01T06:38:22.273Z,7.03
2023-05-01T06:40:49.458Z,6.17
2023-05-01T06:43:16.281Z,7.20
2023-05-01T06:45:43.262Z,6.67
2023-05-01T06:48:10.258Z,6.30
2023-05-01T06:50:37.412Z,6.17
2023-05-01T06:53:04.266Z,7.27
2023-05-01T06:55:31.491Z,6.67
2023-05-01T06:58:01.032Z,6.23
2023-05-01T07:00:29.818Z,6.93
2023-05-01T07:02:56.911Z,6.70
2023-05-01T07:05:24.130Z,7.43
2023-05-01T07:08:00.860Z,7.20
2023-05-01T07:10:28.798Z,5.77
2023-05-01T07:12:55.614Z,6.97
2023-05-01T07:15:22.463Z,7.07
2023-05-01T07:17:51.267Z,5.77
2023-05-01T07:20:18.709Z,7.40
2023-05-01T07:22:45.555Z,5.43
2023-05-01T07:25:12.439Z,8.23
2023-05-01T07:27:39.225Z,5.43
2023-05-01T07:30:07.697Z,5.40
2023-05-01T07:32:34.531Z,5.13
2023-05-01T07:35:01.791Z,9.00
2023-05-01T07:37:28.589Z,5.40
2023-05-01T07:39:56.977Z,5.80
2023-05-01T07:42:23.969Z,7.80
2023-05-01T07:44:51.252Z,4.67
2023-05-01T07:47:18.028Z,6.60
2023-05-01T07:49:45.021Z,5.13
2023-05-01T07:52:11.821Z,5.63
2023-05-01T07:54:38.639Z,5.10
2023-05-01T07:57:06.811Z,6.33
2023-05-01T07:59:33.670Z,4.80
2023-05-01T08:02:00.572Z,5.47
2023-05-01T08:04:28.367Z,5.87
2023-05-01T08:06:55.377Z,5.73
2023-05-01T08:09:22.705Z,5.60
2023-05-01T08:11:49.530Z,5.43
2023-05-01T08:14:16.369Z,7.33
2023-05-01T08:16:44.247Z,5.00
2023-05-01T08:19:11.172Z,5.77
2023-05-01T08:21:38.098Z,4.73
2023-05-01T08:24:09.494Z,4.43
2023-05-01T08:26:36.413Z,4.77
2023-05-01T08:29:03.317Z,4.80
2023-05-01T08:31:30.237Z,5.23
2023-05-01T08:33:57.442Z,7.37
2023-05-01T08:36:24.273Z,6.40
2023-05-01T08:38:51.147Z,7.27
2023-05-01T08:41:22.595Z,4.60
2023-05-01T08:43:49.904Z,4.83
2023-05-01T08:46:29.445Z,6.70
2023-05-01T08:48:58.438Z,4.97
2023-05-01T08:51:26.590Z,5.43
2023-05-01T08:53:56.422Z,5.40
2023-05-01T08:56:23.240Z,5.23
2023-05-01T08:58:50.792Z,5.37
2023-05-01T09:01:20.535Z,4.93
2023-05-01T09:03:50.052Z,4.83
2023-05-01T09:06:17.395Z,4.70
2023-05-01T09:08:44.390Z,5.40
2023-05-01T09:11:12.150Z,7.87
2023-05-01T09:13:39.144Z,4.50
2023-05-01T09:16:06.882Z,4.00
2023-05-01T09:18:35.079Z,5.53
2023-05-01T09:21:02.410Z,4.97
2023-05-01T09:23:29.399Z,3.83
2023-05-01T09:25:57.669Z,5.53
2023-05-01T09:28:47.704Z,4.87
2023-05-01T09:31:26.709Z,4.60
2023-05-01T09:34:02.126Z,4.47
2023-05-01T09:36:32.375Z,4.23
2023-05-01T09:39:00.493Z,5.07
2023-05-01T09:41:28.591Z,4.43
2023-05-01T09:43:57.512Z,5.33
2023-05-01T09:46:26.779Z,4.67
2023-05-01T09:48:53.601Z,5.13
2023-05-01T09:51:24.953Z,5.23
2023-05-01T09:53:51.911Z,5.37
2023-05-01T09:56:20.469Z,5.17
2023-05-01T09:58:49.784Z,5.07
2023-05-01T10:01:16.887Z,4.60
2023-05-01T10:03:45.539Z,4.60
2023-05-01T10:06:12.929Z,4.10
2023-05-01T10:08:49.946Z,4.50
2023-05-01T10:11:17.120Z,4.40
2023-05-01T10:13:44.030Z,4.73
2023-05-01T10:16:30.866Z,4.50
2023-05-01T10:18:57.875Z,4.47
2023-05-01T10:21:24.729Z,4.67
2023-05-01T10:23:52.771Z,4.43
2023-05-01T10:26:19.743Z,5.13
2023-05-01T10:28:49.377Z,4.70
2023-05-01T10:31:16.661Z,3.33
2023-05-01T10:33:45.942Z,3.50
2023-05-01T10:36:38.048Z,3.70
2023-05-01T10:39:05.258Z,4.47
2023-05-01T10:42:08.660Z,5.70
2023-05-01T10:44:35.696Z,3.53
2023-05-01T10:47:24.348Z,3.60
2023-05-01T10:50:08.318Z,4.43
2023-05-01T10:53:12.418Z,3.57
2023-05-01T10:55:49.819Z,3.03
2023-05-01T10:58:38.048Z,3.90
2023-05-01T11:01:32.956Z,5.50
2023-05-01T11:04:21.382Z,4.00
2023-05-01T11:07:08.733Z,4.30
2023-05-01T11:09:36.914Z,5.50
2023-05-01T11:12:04.881Z,4.60
2023-05-01T11:14:56.921Z,4.40
2023-05-01T11:17:48.517Z,3.37
2023-05-01T11:20:27.502Z,3.87
2023-05-01T11:22:58.753Z,3.60
2023-05-01T11:25:28.939Z,3.40
2023-05-01T11:27:59.750Z,4.87
2023-05-01T11:30:37.114Z,3.70
2023-05-01T11:33:04.310Z,3.90
2023-05-01T11:35:32.753Z,4.63
2023-05-01T11:37:59.828Z,3.80
2023-05-01T11:40:32.998Z,4.00
2023-05-01T11:43:07.686Z,3.87
2023-05-01T11:45:37.077Z,3.80
2023-05-01T11:48:05.676Z,4.07
2023-05-01T11:50:35.988Z,3.00
2023-05-01T11:53:05.326Z,3.80
2023-05-01T11:55:34.608Z,5.60
2023-05-01T11:58:02.543Z,3.70
2023-05-01T12:00:35.635Z,3.93
2023-05-01T12:03:15.386Z,3.83
2023-05-01T12:05:45.470Z,5.00
2023-05-01T12:08:18.660Z,4.17
2023-05-01T12:10:49.259Z,4.03
2023-05-01T12:13:17.219Z,3.70
2023-05-01T12:15:47.515Z,3.03
2023-05-01T12:18:16.321Z,3.97
2023-05-01T12:20:46.599Z,3.70
2023-05-01T12:23:16.050Z,5.43
2023-05-01T12:25:45.217Z,3.10
2023-05-01T12:28:17.610Z,3.53
2023-05-01T12:30:46.122Z,4.23
2023-05-01T12:33:18.872Z,3.10
2023-05-01T12:35:49.203Z,3.80
2023-05-01T12:38:23.235Z,4.13
2023-05-01T12:40:52.526Z,4.37
2023-05-01T12:43:30.364Z,3.30
2023-05-01T12:45:58.433Z,5.03
2023-05-01T12:48:26.072Z,3.50
2023-05-01T12:50:53.399Z,4.00
2023-05-01T12:53:22.559Z,3.33
2023-05-01T12:55:53.290Z,4.50
2023-05-01T12:58:20.893Z,5.20
2023-05-01T13:00:55.022Z,3.77
2023-05-01T13:03:29.240Z,3.30
2023-05-01T13:06:03.907Z,2.70
2023-05-01T13:08:33.693Z,3.10
2023-05-01T13:11:18.387Z,2.60
2023-05-01T13:13:46.769Z,2.80
2023-05-01T13:16:16.544Z,2.50
2023-05-01T13:18:48.955Z,3.13
2023-05-01T13:21:18.639Z,3.10
2023-05-01T13:24:01.231Z,2.70
2023-05-01T13:26:33.748Z,3.40
2023-05-01T13:29:02.144Z,3.13
2023-05-01T13:31:30.121Z,3.97
2023-05-01T13:33:59.643Z,2.70
2023-05-01T13:36:31.939Z,3.10
2023-05-01T13:38:58.854Z,3.07
2023-05-01T13:41:27.002Z,3.20
2023-05-01T13:43:56.532Z,3.63
2023-05-01T13:46:26.301Z,3.30
2023-05-01T13:48:53.573Z,2.70
2023-05-01T13:51:27.023Z,2.60
2023-05-01T13:53:54.426Z,2.50
2023-05-01T13:56:22.190Z,2.73
2023-05-01T13:58:50.283Z,2.90
2023-05-01T14:01:20.129Z,2.33
2023-05-01T14:03:48.553Z,2.50
2023-05-01T14:06:19.252Z,2.50
2023-05-01T14:08:49.093Z,3.00
2023-05-01T14:11:16.380Z,2.90
2023-05-01T14:13:47.189Z,3.07
2023-05-01T14:16:28.441Z,2.63
2023-05-01T14:18:56.550Z,2.37
2023-05-01T14:21:25.971Z,3.10
2023-05-01T14:23:53.226Z,2.50
2023-05-01T14:26:21.383Z,3.13
2023-05-01T14:28:48.413Z,2.70
2023-05-01T14:31:30.402Z,2.80
2023-05-01T14:34:01.125Z,2.70
2023-05-01T14:36:29.867Z,2.50
2023-05-01T14:39:02.643Z,3.00
2023-05-01T14:41:30.249Z,2.70
2023-05-01T14:43:57.396Z,2.43
2023-05-01T14:46:35.998Z,2.80
2023-05-01T14:49:03.286Z,2.50
2023-05-01T14:51:31.812Z,3.47
2023-05-01T14:53:59.177Z,2.97
2023-05-01T14:56:26.108Z,3.23
2023-05-01T14:58:52.925Z,2.97
2023-05-01T15:01:19.991Z,2.43
2023-05-01T15:03:47.163Z,2.50
2023-05-01T15:06:14.295Z,2.83
2023-05-01T15:08:41.149Z,4.40
2023-05-01T15:11:07.986Z,5.03
2023-05-01T15:13:34.838Z,3.37
2023-05-01T15:16:01.884Z,4.53
2023-05-01T15:18:28.714Z,3.60
2023-05-01T15:20:55.816Z,2.43
2023-05-01T15:23:23.056Z,2.50
2023-05-01T15:25:49.907Z,3.03
2023-05-01T15:28:16.861Z,2.23
2023-05-01T15:30:47.401Z,2.70
2023-05-01T15:33:17.848Z,2.80
2023-05-01T15:35:47.391Z,3.00
2023-05-01T15:38:14.956Z,2.70
2023-05-01T15:40:45.473Z,2.73
2023-05-01T15:43:12.284Z,6.10
2023-05-01T15:45:39.249Z,2.83
2023-05-01T15:48:06.474Z,2.20
2023-05-01T15:50:33.433Z,2.60
2023-05-01T15:53:00.302Z,2.30
2023-05-01T15:55:27.142Z,3.10
2023-05-01T15:57:54.049Z,2.90
2023-05-01T16:00:20.830Z,3.53
2023-05-01T16:02:48.202Z,2.70
2023-05-01T16:05:20.285Z,2.60
2023-05-01T16:07:52.033Z,2.97
2023-05-01T16:10:18.857Z,2.83
2023-05-01T16:12:45.733Z,2.97
2023-05-01T16:15:15.330Z,2.67
2023-05-01T16:17:44.930Z,8.03
2023-05-01T16:20:13.419Z,3.07
2023-05-01T16:22:44.001Z,2.93
2023-05-01T16:25:11.658Z,2.83
2023-05-01T16:27:41.580Z,2.37
2023-05-01T16:30:09.962Z,2.73
2023-05-01T16:32:39.132Z,3.53
2023-05-01T16:35:06.409Z,3.37
2023-05-01T16:37:36.171Z,2.97
2023-05-01T16:40:04.092Z,3.03
2023-05-01T16:42:30.934Z,2.63
2023-05-01T16:44:57.889Z,2.47
2023-05-01T16:47:24.805Z,2.70
2023-05-01T16:49:52.461Z,2.50
2023-05-01T16:52:19.329Z,3.10
2023-05-01T16:54:46.206Z,3.03
2023-05-01T16:57:13.038Z,2.70
2023-05-01T16:59:39.976Z,3.00
2023-05-01T17:02:07.500Z,5.03
2023-05-01T17:04:34.596Z,3.00
2023-05-01T17:07:01.519Z,2.43
2023-05-01T17:09:28.464Z,3.10
2023-05-01T17:11:55.293Z,5.30
2023-05-01T17:14:22.765Z,4.60
2023-05-01T17:16:50.502Z,3.27
2023-05-01T17:19:17.752Z,3.00
2023-05-01T17:21:44.703Z,3.20
2023-05-01T17:24:11.638Z,4.10
2023-05-01T17:26:38.529Z,4.53
2023-05-01T17:29:05.345Z,4.60
2023-05-01T17:31:33.772Z,4.90
2023-05-01T17:34:00.776Z,5.03
2023-05-01T17:36:27.641Z,4.57
2023-05-01T17:38:54.519Z,5.80
2023-05-01T17:41:21.344Z,5.20
2023-05-01T17:43:48.465Z,6.27
2023-05-01T17:46:18.339Z,6.33
2023-05-01T17:48:45.280Z,6.87
2023-05-01T17:51:12.278Z,8.20
2023-05-01T17:53:39.096Z,9.00
2023-05-01T17:56:05.942Z,7.97
2023-05-01T17:58:33.571Z,8.40
2023-05-01T18:01:00.400Z,8.93
2023-05-01T18:03:27.502Z,8.73
2023-05-01T18:05:54.519Z,9.10
2023-05-01T18:08:21.397Z,8.97
2023-05-01T18:10:48.201Z,8.27
2023-05-01T18:13:15.141Z,8.97
2023-05-01T18:15:42.004Z,9.43
2023-05-01T18:18:09.160Z,8.37
2023-05-01T18:20:36.030Z,9.03
2023-05-01T18:23:02.924Z,8.50
2023-05-01T18:25:29.787Z,10.10
2023-05-01T18:27:56.610Z,9.83
2023-05-01T18:30:23.499Z,10.23
2023-05-01T18:32:50.552Z,10.40
2023-05-01T18:35:17.690Z,12.13
2023-05-01T18:37:45.548Z,9.57
2023-05-01T18:40:12.868Z,9.33
2023-05-01T18:42:43.091Z,10.50
2023-05-01T18:45:11.703Z,11.13
2023-05-01T18:47:38.770Z,10.70
2023-05-01T18:50:07.329Z,9.97
2023-05-01T18:52:34.147Z,11.10
2023-05-01T18:55:01.151Z,11.67
2023-05-01T18:57:29.340Z,10.43
2023-05-01T18:59:56.950Z,11.63
2023-05-01T19:02:24.471Z,11.63
2023-05-01T19:04:57.561Z,11.60
2023-05-01T19:07:26.822Z,11.53
2023-05-01T19:09:54.684Z,12.97
2023-05-01T19:12:21.575Z,13.17
2023-05-01T19:14:49.097Z,13.37
2023-05-01T19:17:15.964Z,13.20
2023-05-01T19:19:42.977Z,13.27
2023-05-01T19:22:10.021Z,12.47
2023-05-01T19:24:37.852Z,12.83
2023-05-01T19:27:05.687Z,11.13
2023-05-01T19:29:33.834Z,11.40
2023-05-01T19:32:01.560Z,11.97
2023-05-01T19:34:28.836Z,11.20
2023-05-01T19:36:56.719Z,9.73
2023-05-01T19:39:24.782Z,9.13
2023-05-01T19:41:52.582Z,7.80
2023-05-01T19:44:20.248Z,7.77
2023-05-01T19:46:47.787Z,6.10
2023-05-01T19:49:14.949Z,6.73
2023-05-01T19:51:42.033Z,7.47
2023-05-01T19:54:09.418Z,7.67
2023-05-01T19:56:36.339Z,6.93
2023-05-01T19:59:04.827Z,7.73
2023-05-01T20:01:33.069Z,8.47
2023-05-01T20:04:01.360Z,9.43
2023-05-01T20:06:29.185Z,9.97
2023-05-01T20:08:57.171Z,9.27
2023-05-01T20:11:24.473Z,9.13
2023-05-01T20:13:52.069Z,8.50
2023-05-01T20:16:19.212Z,9.80
2023-05-01T20:18:46.213Z,9.37
2023-05-01T20:21:13.034Z,9.20
2023-05-01T20:23:40.690Z,10.07
2023-05-01T20:26:07.700Z,8.23
2023-05-01T20:28:34.911Z,7.27
2023-05-01T20:31:01.814Z,7.37
2023-05-01T20:33:28.589Z,9.93
2023-05-01T20:35:55.588Z,9.83
2023-05-01T20:38:22.531Z,8.20
2023-05-01T20:40:49.337Z,9.03
2023-05-01T20:43:16.193Z,8.23
2023-05-01T20:45:43.133Z,7.83
2023-05-01T20:48:10.030Z,8.10
2023-05-01T20:50:36.959Z,8.15
2023-05-01T20:53:03.932Z,8.80
2023-05-01T20:55:30.803Z,7.20
2023-05-01T20:57:57.609Z,7.77
2023-05-01T21:00:24.485Z,7.37
2023-05-01T21:02:51.524Z,6.87
2023-05-01T21:05:18.367Z,7.90
2023-05-01T21:07:45.235Z,6.23
2023-05-01T21:10:12.769Z,6.07
2023-05-01T21:12:39.739Z,7.77
2023-05-01T21:15:07.539Z,7.10
2023-05-01T21:17:36.742Z,8.20
2023-05-01T21:20:17.250Z,7.50
2023-05-01T21:22:44.783Z,8.47
2023-05-01T21:25:14.453Z,8.37
2023-05-01T21:27:41.373Z,7.90
2023-05-01T21:30:13.877Z,8.17
2023-05-01T21:32:40.822Z,10.03
2023-05-01T21:35:08.773Z,7.40
2023-05-01T21:37:36.761Z,7.80
2023-05-01T21:40:06.427Z,10.70
2023-05-01T21:42:39.383Z,8.90
2023-05-01T21:45:12.034Z,10.00
2023-05-01T21:47:48.510Z,9.80
2023-05-01T21:50:17.944Z,9.30
2023-05-01T21:52:47.148Z,8.93
2023-05-01T21:55:24.488Z,8.60
2023-05-01T21:57:51.483Z,9.57
2023-05-01T22:00:18.735Z,8.43
2023-05-01T22:02:49.094Z,10.13
2023-05-01T22:05:20.317Z,9.17
2023-05-01T22:07:47.547Z,9.03
2023-05-01T22:10:17.507Z,9.43
2023-05-01T22:12:46.044Z,8.60
2023-05-01T22:15:14.518Z,8.67
2023-05-01T22:17:42.384Z,9.60
2023-05-01T22:20:09.997Z,10.37
2023-05-01T22:22:39.081Z,9.70
2023-05-01T22:25:07.646Z,8.80
2023-05-01T22:27:35.307Z,9.60
2023-05-01T22:30:03.710Z,8.90
2023-05-01T22:32:31.049Z,10.07
2023-05-01T22:34:58.197Z,10.60
2023-05-01T22:37:25.086Z,11.10
2023-05-01T22:39:53.467Z,10.80
2023-05-01T22:42:20.402Z,10.73
2023-05-01T22:44:47.378Z,9.73
2023-05-01T22:47:14.247Z,11.13
2023-05-01T22:49:41.151Z,11.07
2023-05-01T22:52:07.961Z,11.57
2023-05-01T22:54:34.756Z,11.05
2023-05-01T22:57:01.648Z,11.60
2023-05-01T22:59:28.449Z,13.17
2023-05-01T23:01:55.359Z,13.27
2023-05-01T23:04:22.242Z,12.50
2023-05-01T23:06:49.265Z,14.07
2023-05-01T23:09:16.213Z,13.30
2023-05-01T23:11:43.015Z,12.77
2023-05-01T23:14:09.892Z,12.43
2023-05-01T23:16:41.203Z,14.40
2023-05-01T23:19:22.976Z,13.33
2023-05-01T23:21:51.949Z,14.20
2023-05-01T23:24:20.312Z,13.70
2023-05-01T23:26:47.706Z,13.80
2023-05-01T23:29:18.458Z,13.07
2023-05-01T23:31:47.555Z,13.40
2023-05-01T23:34:17.018Z,13.33
2023-05-01T23:36:46.528Z,14.27
2023-05-01T23:39:14.471Z,13.83
2023-05-01T23:41:42.131Z,14.10
2023-05-01T23:44:09.894Z,11.90
2023-05-01T23:46:37.941Z,13.87
2023-05-01T23:49:05.109Z,13.47
2023-05-01T23:51:32.349Z,14.00
2023-05-01T23:53:59.894Z,15.07
2023-05-01T23:56:26.728Z,13.90
2023-05-01T23:58:53.572Z,15.40
